createdAt,value
2022-11-20T00:04:25.260Z,25.42
2022-11-20T00:09:20.382Z,26.80
2022-11-20T00:14:13.965Z,28.60
2022-11-20T00:19:07.830Z,29.45
2022-11-20T00:24:01.604Z,29.35
2022-11-20T00:28:58.178Z,27.92
2022-11-20T00:33:52.152Z,28.33
2022-11-20T00:38:46.592Z,29.33
2022-11-20T00:43:40.122Z,31.00
2022-11-20T00:48:34.915Z,30.55
2022-11-20T00:53:28.316Z,28.15
2022-11-20T00:58:21.624Z,24.63
2022-11-20T01:03:14.952Z,27.58
2022-11-20T01:08:09.671Z,27.02
2022-11-20T01:13:18.434Z,26.50
2022-11-20T01:18:15.242Z,27.15
2022-11-20T01:23:09.828Z,26.17
2022-11-20T01:28:03.020Z,24.27
2022-11-20T01:32:57.660Z,23.63
2022-11-20T01:37:52.384Z,22.80
2022-11-20T01:43:11.813Z,23.15
2022-11-20T01:48:05.703Z,24.42
2022-11-20T01:53:02.890Z,24.23
2022-11-20T01:58:00.143Z,24.67
2022-11-20T02:03:00.793Z,24.67
2022-11-20T02:07:56.823Z,24.23
2022-11-20T02:13:07.825Z,22.15
2022-11-20T02:18:02.757Z,24.67
2022-11-20T02:23:00.230Z,22.27
2022-11-20T02:27:54.819Z,21.73
2022-11-20T02:32:48.011Z,19.90
2022-11-20T02:37:42.350Z,18.73
2022-11-20T02:42:35.566Z,18.73
2022-11-20T02:47:30.217Z,19.63
2022-11-20T02:52:23.470Z,19.45
2022-11-20T02:57:16.774Z,21.15
2022-11-20T03:02:09.989Z,19.55
2022-11-20T03:07:05.101Z,20.63
2022-11-20T03:11:58.536Z,20.95
2022-11-20T03:16:51.653Z,20.02
2022-11-20T03:21:46.278Z,19.10
2022-11-20T03:26:41.229Z,18.83
2022-11-20T03:31:36.709Z,20.95
2022-11-20T03:36:31.976Z,21.83
2022-11-20T03:41:26.610Z,20.15
2022-11-20T03:46:23.746Z,20.40
2022-11-20T03:51:18.934Z,23.60
2022-11-20T03:56:14.009Z,22.48
2022-11-20T04:01:08.857Z,23.08
2022-11-20T04:06:06.278Z,22.45
2022-11-20T04:11:09.858Z,21.90
2022-11-20T04:16:03.190Z,24.95
2022-11-20T04:20:58.388Z,26.08
2022-11-20T04:25:53.083Z,26.35
2022-11-20T04:30:46.489Z,25.70
2022-11-20T04:35:40.268Z,26.63
2022-11-20T04:40:33.573Z,27.50
2022-11-20T04:45:28.212Z,27.23
2022-11-20T04:50:21.499Z,30.15
2022-11-20T04:55:14.949Z,26.88
2022-11-20T05:00:09.513Z,27.48
2022-11-20T05:05:04.263Z,26.55
2022-11-20T05:09:57.641Z,26.80
2022-11-20T05:14:50.865Z,26.77
2022-11-20T05:19:44.195Z,26.63
2022-11-20T05:24:38.808Z,28.02
2022-11-20T05:29:32.023Z,27.13
2022-11-20T05:34:25.301Z,26.75
2022-11-20T05:39:19.969Z,26.65
2022-11-20T05:44:15.237Z,28.60
2022-11-20T05:49:08.514Z,27.30
2022-11-20T05:54:01.803Z,26.55
2022-11-20T05:58:55.218Z,27.63
2022-11-20T06:03:51.913Z,25.35
2022-11-20T06:08:45.644Z,22.88
2022-11-20T06:13:42.265Z,25.48
2022-11-20T06:18:36.053Z,22.27
2022-11-20T06:23:32.399Z,22.27
2022-11-20T06:28:25.639Z,20.75
2022-11-20T06:33:18.911Z,21.80
2022-11-20T06:38:12.132Z,22.02
2022-11-20T06:43:06.853Z,21.55
2022-11-20T06:48:00.315Z,20.15
2022-11-20T06:52:53.895Z,20.10
2022-11-20T06:57:49.680Z,18.73
2022-11-20T07:02:46.861Z,19.70
2022-11-20T07:07:40.295Z,20.55
2022-11-20T07:12:33.649Z,19.13
2022-11-20T07:17:28.836Z,23.42
2022-11-20T07:22:23.866Z,19.30
2022-11-20T07:27:17.085Z,17.38
2022-11-20T07:32:12.926Z,18.63
2022-11-20T07:37:10.294Z,18.77
2022-11-20T07:42:05.739Z,20.40
2022-11-20T07:46:59.223Z,24.17
2022-11-20T07:51:52.782Z,21.35
2022-11-20T07:56:46.235Z,20.48
2022-11-20T08:01:40.815Z,19.73
2022-11-20T08:06:34.367Z,20.92
2022-11-20T08:11:44.865Z,20.38
2022-11-20T08:16:38.074Z,20.35
2022-11-20T08:21:38.133Z,19.05
2022-11-20T08:31:25.284Z,30.67
2022-11-20T08:36:19.153Z,17.52
2022-11-20T08:41:26.766Z,17.83
2022-11-20T08:46:20.301Z,21.92
2022-11-20T08:51:14.178Z,20.38
2022-11-20T08:56:07.999Z,17.90
2022-11-20T09:01:02.601Z,17.48
2022-11-20T09:06:01.312Z,17.98
2022-11-20T09:10:54.636Z,16.77
2022-11-20T09:15:47.933Z,17.90
2022-11-20T09:20:43.743Z,17.75
2022-11-20T09:25:38.156Z,18.92
2022-11-20T09:30:32.046Z,18.98
2022-11-20T09:35:25.560Z,19.42
2022-11-20T09:40:23.221Z,20.13
2022-11-20T09:45:27.639Z,24.02
2022-11-20T09:50:33.301Z,24.90
2022-11-20T09:55:31.700Z,20.95
2022-11-20T10:00:25.349Z,19.02
2022-11-20T10:05:22.504Z,19.08
2022-11-20T10:10:24.314Z,21.02
2022-11-20T10:15:31.906Z,18.63
2022-11-20T10:20:32.234Z,21.02
2022-11-20T10:25:32.398Z,22.40
2022-11-20T10:30:27.239Z,18.52
2022-11-20T10:35:25.860Z,19.05
2022-11-20T10:40:25.547Z,19.55
2022-11-20T10:45:40.244Z,21.13
2022-11-20T10:50:33.957Z,21.25
2022-11-20T10:55:35.444Z,21.00
2022-11-20T11:00:29.591Z,23.05
2022-11-20T11:05:38.580Z,23.08
2022-11-20T11:10:42.358Z,23.73
2022-11-20T11:15:41.178Z,23.13
2022-11-20T11:20:35.726Z,26.08
2022-11-20T11:25:31.908Z,23.58
2022-11-20T11:30:26.860Z,25.38
2022-11-20T11:35:26.128Z,24.90
2022-11-20T11:40:25.236Z,28.58
2022-11-20T11:45:19.471Z,31.93
2022-11-20T11:50:21.812Z,26.23
2022-11-20T11:55:23.737Z,27.20
2022-11-20T12:00:21.169Z,30.88
2022-11-20T12:05:23.843Z,30.20
2022-11-20T12:10:22.784Z,32.22
2022-11-20T12:15:28.491Z,35.08
2022-11-20T12:20:25.244Z,29.30
2022-11-20T12:25:24.138Z,29.45
2022-11-20T12:30:20.041Z,31.17
2022-11-20T12:35:31.538Z,31.42
2022-11-20T12:40:34.689Z,31.02
2022-11-20T12:46:05.389Z,31.73
2022-11-20T12:51:25.872Z,30.53
2022-11-20T12:56:32.820Z,32.47
2022-11-20T13:01:42.178Z,33.33
2022-11-20T13:06:37.953Z,32.08
2022-11-20T13:11:40.341Z,35.33
2022-11-20T13:16:39.308Z,38.00
2022-11-20T13:21:40.809Z,35.13
2022-11-20T13:26:34.563Z,34.50
2022-11-20T13:31:33.862Z,39.60
2022-11-20T13:36:29.155Z,43.67
2022-11-20T13:41:32.519Z,40.53
2022-11-20T13:46:28.225Z,40.08
2022-11-20T13:51:34.890Z,36.42
2022-11-20T13:56:41.640Z,39.83
2022-11-20T14:01:35.823Z,41.65
2022-11-20T14:06:32.501Z,37.17
2022-11-20T14:11:27.489Z,40.15
2022-11-20T14:16:23.777Z,45.92
2022-11-20T14:21:25.194Z,40.22
2022-11-20T14:26:21.451Z,53.00
2022-11-20T14:31:26.489Z,42.38
2022-11-20T14:36:22.489Z,38.40
2022-11-20T14:41:22.993Z,33.95
2022-11-20T14:51:13.481Z,28.73
2022-11-20T14:56:07.150Z,25.13
2022-11-20T15:01:02.386Z,25.90
2022-11-20T15:05:58.588Z,21.50
2022-11-20T15:10:57.201Z,25.25
2022-11-20T15:15:52.259Z,22.48
2022-11-20T15:20:48.132Z,23.70
2022-11-20T15:25:42.282Z,26.73
2022-11-20T15:30:39.244Z,27.40
2022-11-20T15:35:34.746Z,39.35
2022-11-20T15:40:28.063Z,48.42
2022-11-20T15:45:21.385Z,42.25
2022-11-20T15:50:23.714Z,33.25
2022-11-20T15:55:17.096Z,40.03
2022-11-20T16:00:11.868Z,48.90
2022-11-20T16:05:05.694Z,49.15
2022-11-20T16:10:00.443Z,53.65
2022-11-20T16:15:28.215Z,51.92
2022-11-20T16:20:21.916Z,48.30
2022-11-20T16:25:17.143Z,40.65
2022-11-20T16:30:15.337Z,46.53
2022-11-20T16:35:09.129Z,35.75
2022-11-20T16:40:04.607Z,39.40
2022-11-20T16:44:59.276Z,45.45
2022-11-20T16:49:54.651Z,83.63
2022-11-20T16:54:47.921Z,64.15
2022-11-20T16:59:41.197Z,61.17
2022-11-20T17:04:35.944Z,42.25
2022-11-20T17:09:29.258Z,38.58
2022-11-20T17:14:23.151Z,31.10
2022-11-20T17:19:16.650Z,22.45
2022-11-20T17:24:13.160Z,52.45
2022-11-20T17:29:10.169Z,39.03
2022-11-20T17:34:03.685Z,37.60
2022-11-20T17:38:56.932Z,38.97
2022-11-20T17:43:54.815Z,23.73
2022-11-20T17:48:49.668Z,23.27
2022-11-20T17:53:44.948Z,19.58
2022-11-20T17:58:38.237Z,11.85
2022-11-20T18:03:32.884Z,12.23
2022-11-20T18:08:28.812Z,11.75
2022-11-20T18:13:47.499Z,9.10
2022-11-20T18:18:42.378Z,8.13
2022-11-20T18:23:35.741Z,12.13
2022-11-20T18:28:31.985Z,6.60
2022-11-20T18:33:28.561Z,5.97
2022-11-20T18:38:23.361Z,5.88
2022-11-20T18:43:34.182Z,5.75
2022-11-20T18:48:27.462Z,5.30
2022-11-20T18:53:20.787Z,7.20
2022-11-20T18:58:15.459Z,5.90
2022-11-20T19:03:11.387Z,5.65
2022-11-20T19:08:04.941Z,5.97
2022-11-20T19:12:59.362Z,5.20
2022-11-20T19:17:59.148Z,4.93
2022-11-20T19:22:53.699Z,7.22
2022-11-20T19:27:47.473Z,8.50
2022-11-20T19:32:40.776Z,7.60
2022-11-20T19:37:36.147Z,7.30
2022-11-20T19:42:48.204Z,8.75
2022-11-20T19:48:06.472Z,9.20
2022-11-20T19:53:05.231Z,16.95
2022-11-20T19:58:35.251Z,11.50
2022-11-20T20:03:36.452Z,11.10
2022-11-20T20:08:51.766Z,11.52
2022-11-20T20:14:05.636Z,12.30
2022-11-20T20:19:06.024Z,12.23
2022-11-20T20:24:06.477Z,13.93
2022-11-20T20:29:08.563Z,11.80
2022-11-20T20:34:06.173Z,17.02
2022-11-20T20:39:02.976Z,16.20
2022-11-20T20:44:14.127Z,20.05
2022-11-20T20:49:09.314Z,19.20
2022-11-20T20:54:07.879Z,18.08
2022-11-20T20:59:04.540Z,17.23
2022-11-20T21:09:25.889Z,19.17
2022-11-20T21:14:19.612Z,17.10
2022-11-20T21:19:16.431Z,16.63
2022-11-20T21:24:10.795Z,13.57
2022-11-20T21:29:05.525Z,12.10
2022-11-20T21:33:59.490Z,11.60
2022-11-20T21:38:56.761Z,15.43
2022-11-20T21:44:23.666Z,8.18
2022-11-20T21:49:14.937Z,6.68
2022-11-20T21:54:09.241Z,10.60
2022-11-20T21:59:03.051Z,8.63
2022-11-20T22:03:58.162Z,8.02
2022-11-20T22:08:55.931Z,9.10
2022-11-20T22:14:12.869Z,9.10
2022-11-20T22:19:09.533Z,8.48
2022-11-20T22:24:04.547Z,8.60
2022-11-20T22:28:59.463Z,9.00
2022-11-20T22:33:55.251Z,14.05
2022-11-20T22:38:48.648Z,12.25
2022-11-20T22:43:44.366Z,8.55
2022-11-20T22:48:40.338Z,11.45
2022-11-20T22:53:34.128Z,8.57
2022-11-20T22:58:31.466Z,10.27
2022-11-20T23:03:26.246Z,8.48
2022-11-20T23:08:19.693Z,8.10
2022-11-20T23:13:30.351Z,7.97
2022-11-20T23:23:21.844Z,14.05
2022-11-20T23:28:19.645Z,16.67
2022-11-20T23:33:13.010Z,11.98
2022-11-20T23:38:06.188Z,11.30
2022-11-20T23:43:19.149Z,11.43
2022-11-20T23:48:12.560Z,9.70
2022-11-20T23:53:06.580Z,9.52
2022-11-20T23:58:44.995Z,9.27
